createdAt,value
2023-02-26T00:00:16.529Z,4.67
2023-02-26T00:02:47.949Z,4.50
2023-02-26T00:05:17.669Z,4.03
2023-02-26T00:07:46.432Z,4.47
2023-02-26T00:10:16.541Z,4.40
2023-02-26T00:12:47.718Z,4.47
2023-02-26T00:15:18.428Z,4.33
2023-02-26T00:17:56.886Z,4.47
2023-02-26T00:20:27.032Z,5.27
2023-02-26T00:22:56.229Z,4.50
2023-02-26T00:25:24.669Z,4.10
2023-02-26T00:27:55.455Z,4.37
2023-02-26T00:30:24.929Z,3.80
2023-02-26T00:32:54.127Z,4.37
2023-02-26T00:35:23.786Z,3.83
2023-02-26T00:38:05.417Z,4.13
2023-02-26T00:40:44.136Z,3.60
2023-02-26T00:43:18.603Z,3.20
2023-02-26T00:45:57.110Z,4.23
2023-02-26T00:48:41.803Z,3.47
2023-02-26T00:51:22.215Z,3.50
2023-02-26T00:53:59.813Z,3.87
2023-02-26T00:56:28.195Z,3.37
2023-02-26T00:58:57.959Z,4.07
2023-02-26T01:01:26.346Z,3.10
2023-02-26T01:03:55.669Z,3.20
2023-02-26T01:06:29.332Z,3.20
2023-02-26T01:09:09.600Z,3.07
2023-02-26T01:11:38.877Z,2.87
2023-02-26T01:14:09.489Z,2.83
2023-02-26T01:16:49.472Z,3.00
2023-02-26T01:19:31.620Z,2.63
2023-02-26T01:22:09.256Z,2.90
2023-02-26T01:24:38.734Z,2.70
2023-02-26T01:27:07.722Z,3.20
2023-02-26T01:29:38.199Z,2.80
2023-02-26T01:32:17.391Z,2.90
2023-02-26T01:34:55.882Z,2.97
2023-02-26T01:37:34.722Z,2.50
2023-02-26T01:40:30.877Z,2.50
2023-02-26T01:43:07.705Z,2.33
2023-02-26T01:45:52.142Z,2.50
2023-02-26T01:48:33.915Z,2.73
2023-02-26T01:51:02.338Z,2.33
2023-02-26T01:53:30.739Z,2.77
2023-02-26T01:56:04.070Z,2.47
2023-02-26T01:58:36.991Z,2.17
2023-02-26T02:01:07.828Z,3.00
2023-02-26T02:03:40.969Z,2.40
2023-02-26T02:06:16.545Z,2.40
2023-02-26T02:08:45.636Z,2.07
2023-02-26T02:11:15.681Z,1.60
2023-02-26T02:14:02.316Z,1.70
2023-02-26T02:16:45.964Z,1.60
2023-02-26T02:19:44.555Z,2.20
2023-02-26T02:22:52.626Z,1.70
2023-02-26T02:26:11.317Z,2.40
2023-02-26T02:29:00.839Z,2.03
2023-02-26T02:31:36.587Z,1.80
2023-02-26T02:34:15.111Z,2.53
2023-02-26T02:36:50.322Z,1.97
2023-02-26T02:39:24.496Z,1.93
2023-02-26T02:42:00.314Z,2.03
2023-02-26T02:44:32.796Z,1.93
2023-02-26T02:47:05.599Z,2.10
2023-02-26T02:49:41.099Z,1.70
2023-02-26T02:52:15.478Z,2.10
2023-02-26T02:54:55.481Z,1.53
2023-02-26T02:57:31.544Z,1.90
2023-02-26T03:00:06.231Z,1.87
2023-02-26T03:02:47.877Z,1.50
2023-02-26T03:05:17.056Z,1.60
2023-02-26T03:07:51.149Z,1.50
2023-02-26T03:10:20.261Z,1.63
2023-02-26T03:12:48.663Z,1.67
2023-02-26T03:15:27.266Z,1.60
2023-02-26T03:18:07.618Z,1.80
2023-02-26T03:20:43.451Z,1.50
2023-02-26T03:23:20.797Z,1.80
2023-02-26T03:25:54.989Z,1.40
2023-02-26T03:28:30.469Z,1.43
2023-02-26T03:31:08.530Z,1.70
2023-02-26T03:33:48.972Z,1.70
2023-02-26T03:36:23.925Z,1.30
2023-02-26T03:39:11.010Z,1.30
2023-02-26T03:41:46.180Z,1.80
2023-02-26T03:44:20.826Z,1.67
2023-02-26T03:46:57.902Z,1.40
2023-02-26T03:49:33.152Z,2.07
2023-02-26T03:52:04.857Z,1.40
2023-02-26T03:55:03.673Z,1.57
2023-02-26T03:57:50.809Z,1.20
2023-02-26T04:00:27.246Z,1.10
2023-02-26T04:03:01.673Z,1.50
2023-02-26T04:05:36.848Z,1.97
2023-02-26T04:08:05.587Z,1.50
2023-02-26T04:10:40.238Z,1.30
2023-02-26T04:13:09.373Z,1.30
2023-02-26T04:15:38.850Z,2.00
2023-02-26T04:18:07.495Z,1.47
2023-02-26T04:20:37.760Z,1.20
2023-02-26T04:23:06.180Z,1.33
2023-02-26T04:25:35.166Z,1.20
2023-02-26T04:28:03.902Z,1.50
2023-02-26T04:30:33.969Z,1.30
2023-02-26T04:33:03.639Z,1.30
2023-02-26T04:35:33.698Z,1.13
2023-02-26T04:38:04.121Z,1.57
2023-02-26T04:40:32.939Z,1.33
2023-02-26T04:43:01.383Z,1.30
2023-02-26T04:45:34.054Z,1.27
2023-02-26T04:48:02.816Z,1.50
2023-02-26T04:50:31.236Z,0.90
2023-02-26T04:52:59.749Z,1.30
2023-02-26T04:55:29.649Z,1.83
2023-02-26T04:57:58.521Z,1.53
2023-02-26T05:00:28.002Z,1.40
2023-02-26T05:02:59.270Z,1.23
2023-02-26T05:05:27.852Z,1.10
2023-02-26T05:07:56.885Z,1.30
2023-02-26T05:10:25.986Z,1.33
2023-02-26T05:12:55.838Z,1.30
2023-02-26T05:15:24.359Z,1.30
2023-02-26T05:17:53.085Z,1.60
2023-02-26T05:20:22.052Z,1.10
2023-02-26T05:22:50.566Z,1.10
2023-02-26T05:25:19.655Z,2.10
2023-02-26T05:27:49.274Z,1.10
2023-02-26T05:30:19.802Z,1.47
2023-02-26T05:32:48.192Z,1.33
2023-02-26T05:35:16.607Z,1.53
2023-02-26T05:37:45.125Z,1.55
2023-02-26T05:40:15.218Z,1.70
2023-02-26T05:42:43.794Z,1.13
2023-02-26T05:45:12.418Z,1.20
2023-02-26T05:47:42.282Z,1.47
2023-02-26T05:50:12.887Z,1.43
2023-02-26T05:52:41.672Z,1.23
2023-02-26T05:55:11.520Z,1.23
2023-02-26T05:57:40.262Z,1.90
2023-02-26T06:00:10.804Z,1.40
2023-02-26T06:02:43.439Z,1.57
2023-02-26T06:05:12.027Z,1.60
2023-02-26T06:07:40.622Z,1.23
2023-02-26T06:10:11.613Z,1.30
2023-02-26T06:12:41.427Z,1.23
2023-02-26T06:15:11.738Z,1.40
2023-02-26T06:17:42.528Z,1.40
2023-02-26T06:20:12.897Z,1.25
2023-02-26T06:22:41.543Z,1.30
2023-02-26T06:25:10.994Z,0.97
2023-02-26T06:27:39.522Z,1.33
2023-02-26T06:30:10.254Z,1.35
2023-02-26T06:32:39.727Z,1.10
2023-02-26T06:35:11.074Z,1.38
2023-02-26T06:37:39.539Z,1.77
2023-02-26T06:40:10.805Z,1.20
2023-02-26T06:42:39.418Z,1.60
2023-02-26T06:45:09.036Z,1.50
2023-02-26T06:47:37.636Z,1.50
2023-02-26T06:50:07.245Z,1.20
2023-02-26T06:52:37.102Z,1.40
2023-02-26T06:55:06.379Z,1.33
2023-02-26T06:57:34.814Z,1.50
2023-02-26T07:00:03.917Z,1.30
2023-02-26T07:02:33.158Z,1.27
2023-02-26T07:05:01.732Z,1.30
2023-02-26T07:07:30.250Z,1.13
2023-02-26T07:10:00.063Z,1.40
2023-02-26T07:12:28.609Z,1.33
2023-02-26T07:14:57.054Z,1.30
2023-02-26T07:17:25.591Z,1.10
2023-02-26T07:19:54.377Z,1.50
2023-02-26T07:22:22.851Z,1.10
2023-02-26T07:24:51.659Z,1.10
2023-02-26T07:27:21.473Z,1.13
2023-02-26T07:29:50.011Z,1.30
2023-02-26T07:32:18.483Z,2.50
2023-02-26T07:34:46.988Z,1.13
2023-02-26T07:37:15.818Z,1.10
2023-02-26T07:39:44.299Z,1.43
2023-02-26T07:42:13.290Z,1.73
2023-02-26T07:44:45.612Z,1.20
2023-02-26T07:47:14.140Z,1.20
2023-02-26T07:49:42.547Z,1.10
2023-02-26T07:52:11.299Z,1.30
2023-02-26T07:54:39.825Z,1.50
2023-02-26T07:57:08.479Z,1.30
2023-02-26T07:59:36.920Z,1.37
2023-02-26T08:02:07.806Z,1.13
2023-02-26T08:04:36.317Z,1.10
2023-02-26T08:07:05.196Z,1.47
2023-02-26T08:09:34.010Z,1.40
2023-02-26T08:12:02.610Z,1.37
2023-02-26T08:14:31.447Z,1.57
2023-02-26T08:16:59.956Z,1.47
2023-02-26T08:19:29.797Z,2.50
2023-02-26T08:21:58.289Z,1.60
2023-02-26T08:24:27.265Z,1.10
2023-02-26T08:26:56.778Z,1.07
2023-02-26T08:29:26.034Z,1.40
2023-02-26T08:31:54.534Z,1.10
2023-02-26T08:34:23.124Z,1.30
2023-02-26T08:36:53.427Z,1.10
2023-02-26T08:39:21.880Z,1.57
2023-02-26T08:41:50.369Z,1.60
2023-02-26T08:44:18.803Z,1.20
2023-02-26T08:46:47.264Z,1.40
2023-02-26T08:49:15.716Z,1.77
2023-02-26T08:51:44.132Z,1.50
2023-02-26T08:54:14.226Z,1.27
2023-02-26T08:56:42.727Z,1.20
2023-02-26T08:59:13.049Z,1.50
2023-02-26T09:01:41.667Z,1.40
2023-02-26T09:04:10.138Z,1.20
2023-02-26T09:06:38.763Z,1.10
2023-02-26T09:09:07.530Z,1.40
2023-02-26T09:11:37.736Z,1.30
2023-02-26T09:14:06.664Z,1.30
2023-02-26T09:16:37.127Z,1.10
2023-02-26T09:19:08.132Z,1.53
2023-02-26T09:21:36.917Z,1.20
2023-02-26T09:24:05.769Z,1.27
2023-02-26T09:26:34.469Z,1.63
2023-02-26T09:29:04.283Z,1.40
2023-02-26T09:31:33.892Z,1.40
2023-02-26T09:34:03.948Z,1.03
2023-02-26T09:36:32.456Z,1.87
2023-02-26T09:39:00.982Z,2.00
2023-02-26T09:41:35.263Z,1.30
2023-02-26T09:44:17.762Z,1.43
2023-02-26T09:47:03.445Z,1.47
2023-02-26T09:49:53.147Z,1.43
2023-02-26T09:52:29.065Z,1.20
2023-02-26T09:55:02.541Z,1.37
2023-02-26T09:57:35.887Z,1.43
2023-02-26T10:00:25.379Z,1.30
2023-02-26T10:03:08.001Z,1.30
2023-02-26T10:05:44.274Z,1.30
2023-02-26T10:08:17.728Z,1.20
2023-02-26T10:10:55.968Z,1.33
2023-02-26T10:13:33.410Z,1.37
2023-02-26T10:16:12.646Z,1.10
2023-02-26T10:18:47.479Z,1.00
2023-02-26T10:21:23.379Z,1.57
2023-02-26T10:23:56.754Z,1.30
2023-02-26T10:26:29.736Z,1.27
2023-02-26T10:29:06.777Z,1.07
2023-02-26T10:31:45.133Z,1.33
2023-02-26T10:34:26.215Z,1.10
2023-02-26T10:37:05.730Z,1.20
2023-02-26T10:39:42.135Z,0.90
2023-02-26T10:42:19.124Z,1.90
2023-02-26T10:44:58.531Z,1.20
2023-02-26T10:47:39.481Z,2.00
2023-02-26T10:50:13.011Z,1.40
2023-02-26T10:52:45.957Z,1.03
2023-02-26T10:55:33.622Z,1.33
2023-02-26T10:58:07.489Z,1.10
2023-02-26T11:00:36.599Z,1.00
2023-02-26T11:03:09.236Z,0.80
2023-02-26T11:05:37.878Z,1.10
2023-02-26T11:08:14.847Z,1.10
2023-02-26T11:10:51.840Z,1.00
2023-02-26T11:13:22.309Z,1.23
2023-02-26T11:15:55.467Z,1.10
2023-02-26T11:18:31.240Z,1.20
2023-02-26T11:21:02.362Z,1.30
2023-02-26T11:23:34.123Z,1.00
2023-02-26T11:26:09.824Z,1.20
2023-02-26T11:28:46.144Z,1.33
2023-02-26T11:31:19.853Z,1.17
2023-02-26T11:33:55.896Z,1.00
2023-02-26T11:36:28.681Z,0.93
2023-02-26T11:39:02.782Z,1.00
2023-02-26T11:41:31.794Z,1.00
2023-02-26T11:44:06.211Z,1.27
2023-02-26T11:46:45.034Z,1.00
2023-02-26T11:49:19.648Z,1.10
2023-02-26T11:51:49.573Z,1.27
2023-02-26T11:54:29.320Z,1.23
2023-02-26T11:57:06.088Z,0.80
2023-02-26T11:59:35.193Z,1.00
2023-02-26T12:02:12.917Z,1.00
2023-02-26T12:04:47.937Z,1.03
2023-02-26T12:07:18.624Z,1.13
2023-02-26T12:09:49.294Z,1.20
2023-02-26T12:12:46.734Z,0.90
2023-02-26T12:15:28.324Z,0.90
2023-02-26T12:18:20.726Z,1.60
2023-02-26T12:21:06.619Z,1.07
2023-02-26T12:24:11.489Z,1.10
2023-02-26T12:26:48.583Z,1.13
2023-02-26T12:29:46.099Z,1.70
2023-02-26T12:32:38.845Z,1.07
2023-02-26T12:35:54.833Z,0.90
2023-02-26T12:38:35.760Z,0.90
2023-02-26T12:41:31.095Z,1.00
2023-02-26T12:44:05.618Z,1.00
2023-02-26T12:47:03.566Z,1.30
2023-02-26T12:50:07.204Z,1.00
2023-02-26T12:52:58.504Z,1.10
2023-02-26T12:55:40.358Z,1.20
2023-02-26T12:58:57.777Z,1.70
2023-02-26T13:02:00.345Z,1.00
2023-02-26T13:05:06.578Z,1.00
2023-02-26T13:08:04.028Z,0.80
2023-02-26T13:10:56.727Z,1.00
2023-02-26T13:13:51.240Z,1.00
2023-02-26T13:16:32.862Z,1.10
2023-02-26T13:19:13.404Z,1.00
2023-02-26T13:21:46.813Z,1.00
2023-02-26T13:24:22.702Z,1.17
2023-02-26T13:26:54.748Z,0.90
2023-02-26T13:29:28.734Z,1.33
2023-02-26T13:32:03.056Z,1.33
2023-02-26T13:34:47.577Z,1.03
2023-02-26T13:37:25.412Z,1.10
2023-02-26T13:40:08.270Z,1.23
2023-02-26T13:42:49.864Z,1.00
2023-02-26T13:45:40.288Z,0.80
2023-02-26T13:48:25.487Z,0.90
2023-02-26T13:51:04.873Z,0.80
2023-02-26T13:53:59.117Z,1.53
2023-02-26T13:56:55.415Z,1.03
2023-02-26T13:59:47.975Z,1.10
2023-02-26T14:02:53.994Z,0.97
2023-02-26T14:05:56.410Z,0.90
2023-02-26T14:08:48.447Z,0.80
2023-02-26T14:11:40.250Z,1.10
2023-02-26T14:14:21.419Z,1.03
2023-02-26T14:16:56.912Z,0.90
2023-02-26T14:19:30.659Z,1.03
2023-02-26T14:22:15.183Z,1.10
2023-02-26T14:24:56.270Z,1.10
2023-02-26T14:27:34.770Z,1.03
2023-02-26T14:30:19.421Z,1.00
2023-02-26T14:32:51.794Z,1.10
2023-02-26T14:35:26.611Z,0.97
2023-02-26T14:38:03.211Z,0.97
2023-02-26T14:40:37.574Z,0.90
2023-02-26T14:43:10.728Z,1.00
2023-02-26T14:45:42.918Z,1.27
2023-02-26T14:48:16.489Z,1.00
2023-02-26T14:51:05.459Z,1.00
2023-02-26T14:54:17.796Z,0.90
2023-02-26T14:57:02.619Z,0.80
2023-02-26T14:59:57.021Z,0.97
2023-02-26T15:02:33.077Z,0.90
2023-02-26T15:05:42.843Z,0.90
2023-02-26T15:08:26.983Z,0.90
2023-02-26T15:11:15.701Z,0.80
2023-02-26T15:14:15.289Z,1.00
2023-02-26T15:16:57.191Z,0.70
2023-02-26T15:19:49.465Z,0.67
2023-02-26T15:22:36.267Z,1.00
2023-02-26T15:25:07.625Z,1.00
2023-02-26T15:27:36.637Z,1.10
2023-02-26T15:30:06.586Z,1.10
2023-02-26T15:32:41.162Z,1.03
2023-02-26T15:35:19.504Z,0.80
2023-02-26T15:37:56.223Z,1.17
2023-02-26T15:40:25.634Z,1.43
2023-02-26T15:42:58.659Z,1.20
2023-02-26T15:45:33.514Z,1.10
2023-02-26T15:48:06.698Z,0.70
2023-02-26T15:50:41.847Z,0.90
2023-02-26T15:53:21.430Z,0.90
2023-02-26T15:55:54.928Z,1.00
2023-02-26T15:58:41.006Z,1.00
2023-02-26T16:01:15.344Z,0.80
2023-02-26T16:03:45.115Z,0.80
2023-02-26T16:06:17.134Z,1.00
2023-02-26T16:08:47.199Z,1.03
2023-02-26T16:11:16.830Z,1.13
2023-02-26T16:13:46.931Z,1.37
2023-02-26T16:16:23.063Z,0.90
2023-02-26T16:18:53.838Z,0.87
2023-02-26T16:21:30.437Z,0.90
2023-02-26T16:24:02.492Z,1.03
2023-02-26T16:26:35.413Z,0.90
2023-02-26T16:29:11.690Z,1.10
2023-02-26T16:31:43.052Z,0.93
2023-02-26T16:34:36.207Z,0.90
2023-02-26T16:37:25.323Z,0.93
2023-02-26T16:40:06.545Z,1.17
2023-02-26T16:42:46.653Z,0.70
2023-02-26T16:45:26.902Z,1.00
2023-02-26T16:47:59.093Z,1.13
2023-02-26T16:50:30.936Z,0.90
2023-02-26T16:53:10.904Z,1.37
2023-02-26T16:55:41.313Z,1.20
2023-02-26T16:58:17.816Z,1.43
2023-02-26T17:00:51.690Z,1.20
2023-02-26T17:03:24.343Z,1.30
2023-02-26T17:05:59.109Z,1.23
2023-02-26T17:08:36.544Z,1.00
2023-02-26T17:11:10.414Z,1.10
2023-02-26T17:13:38.966Z,1.10
2023-02-26T17:16:12.514Z,0.90
2023-02-26T17:18:41.374Z,1.50
2023-02-26T17:21:11.302Z,1.20
2023-02-26T17:23:40.506Z,1.10
2023-02-26T17:26:10.361Z,1.20
2023-02-26T17:28:43.878Z,1.13
2023-02-26T17:31:13.333Z,1.10
2023-02-26T17:33:44.084Z,1.30
2023-02-26T17:36:18.770Z,1.13
2023-02-26T17:38:47.692Z,1.33
2023-02-26T17:41:19.560Z,1.10
2023-02-26T17:43:47.973Z,1.37
2023-02-26T17:46:16.385Z,1.13
2023-02-26T17:48:44.781Z,1.10
2023-02-26T17:51:15.986Z,1.00
2023-02-26T17:53:46.739Z,1.47
2023-02-26T17:56:25.928Z,1.43
2023-02-26T17:58:56.365Z,1.10
2023-02-26T18:01:26.827Z,1.30
2023-02-26T18:03:56.013Z,1.40
2023-02-26T18:06:26.304Z,1.60
2023-02-26T18:08:54.902Z,1.30
2023-02-26T18:11:26.280Z,1.20
2023-02-26T18:13:55.553Z,1.10
2023-02-26T18:16:31.802Z,1.20
2023-02-26T18:19:00.579Z,1.37
2023-02-26T18:21:29.508Z,1.40
2023-02-26T18:23:58.026Z,1.53
2023-02-26T18:26:30.900Z,1.70
2023-02-26T18:28:59.807Z,1.37
2023-02-26T18:31:34.667Z,1.67
2023-02-26T18:34:04.298Z,1.40
2023-02-26T18:36:37.970Z,1.67
2023-02-26T18:39:09.780Z,1.00
2023-02-26T18:41:39.616Z,1.20
2023-02-26T18:44:08.163Z,1.07
2023-02-26T18:46:40.153Z,1.30
2023-02-26T18:49:16.496Z,1.47
2023-02-26T18:51:45.114Z,1.67
2023-02-26T18:54:13.775Z,1.50
2023-02-26T18:56:43.490Z,2.17
2023-02-26T18:59:12.089Z,1.80
2023-02-26T19:01:40.585Z,1.90
2023-02-26T19:04:09.130Z,2.00
2023-02-26T19:06:37.662Z,3.30
2023-02-26T19:09:06.965Z,2.13
2023-02-26T19:11:36.402Z,1.80
2023-02-26T19:14:06.602Z,2.80
2023-02-26T19:16:38.240Z,1.77
2023-02-26T19:19:10.656Z,1.43
2023-02-26T19:21:41.059Z,1.80
2023-02-26T19:24:12.052Z,1.57
2023-02-26T19:26:41.196Z,3.10
2023-02-26T19:29:20.727Z,1.57
2023-02-26T19:31:49.338Z,2.30
2023-02-26T19:34:17.976Z,3.10
2023-02-26T19:36:48.320Z,2.00
2023-02-26T19:39:18.878Z,3.03
2023-02-26T19:41:50.501Z,1.97
2023-02-26T19:44:20.757Z,1.53
2023-02-26T19:46:50.166Z,2.47
2023-02-26T19:49:19.276Z,1.80
2023-02-26T19:51:47.834Z,1.97
2023-02-26T19:54:16.918Z,1.83
2023-02-26T19:56:46.227Z,1.97
2023-02-26T19:59:14.701Z,2.10
2023-02-26T20:01:46.496Z,1.90
2023-02-26T20:04:15.112Z,1.43
2023-02-26T20:06:43.642Z,1.83
2023-02-26T20:09:12.779Z,2.10
2023-02-26T20:11:41.505Z,1.90
2023-02-26T20:14:10.593Z,2.40
2023-02-26T20:16:39.373Z,2.13
2023-02-26T20:19:09.621Z,1.77
2023-02-26T20:21:38.138Z,2.30
2023-02-26T20:24:10.088Z,2.27
2023-02-26T20:26:39.282Z,3.90
2023-02-26T20:29:08.410Z,1.97
2023-02-26T20:31:37.062Z,2.03
2023-02-26T20:34:06.631Z,2.90
2023-02-26T20:36:36.442Z,2.23
2023-02-26T20:39:07.052Z,2.40
2023-02-26T20:41:35.656Z,2.23
2023-02-26T20:44:04.381Z,3.80
2023-02-26T20:46:35.927Z,3.27
2023-02-26T20:49:04.712Z,2.80
2023-02-26T20:51:33.555Z,3.07
2023-02-26T20:54:03.902Z,3.00
2023-02-26T20:56:32.689Z,2.10
2023-02-26T20:59:01.491Z,2.23
2023-02-26T21:01:35.527Z,2.40
2023-02-26T21:04:05.856Z,3.37
2023-02-26T21:06:35.089Z,2.43
2023-02-26T21:09:05.936Z,3.00
2023-02-26T21:11:36.885Z,2.97
2023-02-26T21:14:08.697Z,4.50
2023-02-26T21:16:39.187Z,4.70
2023-02-26T21:19:07.955Z,5.40
2023-02-26T21:21:36.392Z,4.70
2023-02-26T21:24:07.129Z,3.53
2023-02-26T21:26:35.616Z,4.70
2023-02-26T21:29:04.952Z,3.80
2023-02-26T21:31:33.475Z,3.50
2023-02-26T21:34:17.279Z,3.07
2023-02-26T21:36:50.815Z,3.20
2023-02-26T21:39:24.523Z,3.30
2023-02-26T21:41:54.213Z,3.23
2023-02-26T21:44:22.817Z,3.00
2023-02-26T21:46:51.253Z,2.87
2023-02-26T21:49:19.694Z,3.20
2023-02-26T21:51:48.131Z,3.17
2023-02-26T21:54:16.626Z,3.07
2023-02-26T21:56:46.471Z,3.20
2023-02-26T21:59:14.932Z,3.50
2023-02-26T22:01:43.329Z,3.63
2023-02-26T22:04:12.075Z,2.90
2023-02-26T22:06:40.546Z,3.27
2023-02-26T22:09:09.150Z,3.00
2023-02-26T22:11:37.610Z,2.70
2023-02-26T22:14:07.556Z,3.43
2023-02-26T22:16:36.013Z,3.30
2023-02-26T22:19:04.560Z,3.20
2023-02-26T22:21:32.982Z,3.47
2023-02-26T22:24:03.715Z,3.30
2023-02-26T22:26:32.415Z,3.73
2023-02-26T22:29:01.013Z,3.80
2023-02-26T22:31:31.879Z,3.10
2023-02-26T22:34:00.894Z,3.40
2023-02-26T22:36:31.292Z,3.20
2023-02-26T22:39:00.204Z,3.30
2023-02-26T22:41:28.597Z,3.37
2023-02-26T22:43:57.028Z,2.47
2023-02-26T22:46:28.314Z,3.17
2023-02-26T22:48:58.524Z,3.20
2023-02-26T22:51:28.406Z,2.50
2023-02-26T22:53:57.450Z,3.40
2023-02-26T22:56:26.093Z,2.87
2023-02-26T22:58:54.933Z,3.57
2023-02-26T23:01:23.394Z,3.20
2023-02-26T23:03:52.033Z,3.10
2023-02-26T23:06:21.789Z,3.30
2023-02-26T23:08:50.103Z,3.13
2023-02-26T23:11:18.694Z,3.17
2023-02-26T23:13:47.499Z,3.10
2023-02-26T23:16:16.089Z,2.93
2023-02-26T23:18:45.624Z,3.40
2023-02-26T23:21:14.164Z,3.77
2023-02-26T23:23:44.851Z,3.03
2023-02-26T23:26:13.640Z,3.33
2023-02-26T23:28:42.194Z,3.00
2023-02-26T23:31:10.808Z,4.10
2023-02-26T23:33:39.253Z,2.70
2023-02-26T23:36:08.901Z,2.97
2023-02-26T23:38:37.723Z,2.70
2023-02-26T23:41:07.611Z,3.17
2023-02-26T23:43:36.339Z,3.30
2023-02-26T23:46:05.783Z,3.27
2023-02-26T23:48:34.355Z,3.80
2023-02-26T23:51:03.049Z,2.90
2023-02-26T23:53:31.390Z,3.20
2023-02-26T23:55:59.799Z,4.17
2023-02-26T23:58:31.166Z,2.97
